Time;durP1;ratioP1;P1;durP2;ratioP2;P2;SDS_P1;SDS_P2;PMS_P1;PMS_P2;Temp;Humidity;BMP_temperature;BMP_pressure;BME280_temperature;BME280_humidity;BME280_pressure;Samples;Min_cycle;Max_cycle;Signal;HPM_P1;HPM_P2
2023/04/30 00:02:13;;;;;;;4.77;3.70;;;;;;;;;;5058490;28;20238;-61
2023/04/30 00:04:41;;;;;;;4.37;3.63;;;;;;;;;;5060403;28;20195;-61
2023/04/30 00:07:10;;;;;;;4.77;3.90;;;;;;;;;;5058770;28;20232;-60
2023/04/30 00:09:38;;;;;;;4.37;3.97;;;;;;;;;;5059113;28;20270;-61
2023/04/30 00:12:06;;;;;;;6.50;4.23;;;;;;;;;;5058764;28;20211;-60
2023/04/30 00:14:35;;;;;;;4.03;3.50;;;;;;;;;;5058716;28;20219;-60
2023/04/30 00:17:03;;;;;;;4.40;3.87;;;;;;;;;;5058011;28;20326;-60
2023/04/30 00:19:31;;;;;;;3.83;3.53;;;;;;;;;;5058614;28;20274;-60
2023/04/30 00:22:00;;;;;;;4.83;3.47;;;;;;;;;;5058318;28;20217;-60
2023/04/30 00:24:29;;;;;;;4.63;3.63;;;;;;;;;;5058653;28;20238;-60
2023/04/30 00:26:57;;;;;;;6.47;4.50;;;;;;;;;;5058202;28;20227;-60
2023/04/30 00:29:25;;;;;;;5.20;4.10;;;;;;;;;;5058454;28;20207;-60
2023/04/30 00:31:53;;;;;;;4.83;4.13;;;;;;;;;;5058074;28;20209;-60
2023/04/30 00:34:23;;;;;;;4.87;4.27;;;;;;;;;;5058277;28;20264;-60
2023/04/30 00:36:53;;;;;;;6.33;4.30;;;;;;;;;;5058102;28;20254;-61
2023/04/30 00:39:21;;;;;;;5.07;4.07;;;;;;;;;;5058310;28;20211;-60
2023/04/30 00:41:50;;;;;;;5.53;4.43;;;;;;;;;;5057442;28;20211;-60
2023/04/30 00:44:18;;;;;;;4.27;3.77;;;;;;;;;;5057985;28;20206;-61
2023/04/30 00:46:46;;;;;;;4.77;4.07;;;;;;;;;;5057882;28;20219;-60
2023/04/30 00:49:14;;;;;;;4.63;4.10;;;;;;;;;;5057844;28;20667;-61
2023/04/30 00:51:42;;;;;;;6.00;4.63;;;;;;;;;;5058153;28;20210;-60
2023/04/30 00:54:11;;;;;;;6.30;4.50;;;;;;;;;;5058016;28;20210;-60
2023/04/30 00:56:38;;;;;;;5.63;4.60;;;;;;;;;;5057967;28;20317;-60
2023/04/30 00:59:08;;;;;;;5.03;4.40;;;;;;;;;;5057685;28;20230;-61
2023/04/30 01:01:36;;;;;;;5.57;3.97;;;;;;;;;;5057777;28;20238;-61
2023/04/30 01:04:04;;;;;;;4.70;4.27;;;;;;;;;;5057774;28;20203;-60
2023/04/30 01:06:33;;;;;;;4.93;4.33;;;;;;;;;;5057558;28;20258;-60
2023/04/30 01:09:01;;;;;;;4.53;4.13;;;;;;;;;;5057854;28;20245;-60
2023/04/30 01:11:35;;;;;;;4.53;4.13;;;;;;;;;;5057736;28;20225;-61
2023/04/30 01:14:07;;;;;;;4.97;4.47;;;;;;;;;;5057893;28;20210;-60
2023/04/30 01:16:43;;;;;;;4.80;4.27;;;;;;;;;;5057096;28;20234;-60
2023/04/30 01:19:19;;;;;;;7.53;4.80;;;;;;;;;;5057535;28;20239;-60
2023/04/30 01:21:47;;;;;;;5.20;4.60;;;;;;;;;;5057501;28;20658;-60
2023/04/30 01:24:24;;;;;;;5.00;4.53;;;;;;;;;;5057412;28;20297;-60
2023/04/30 01:27:06;;;;;;;6.03;4.43;;;;;;;;;;5057332;28;20250;-60
2023/04/30 01:29:36;;;;;;;5.33;4.70;;;;;;;;;;5057608;28;20203;-60
2023/04/30 01:32:04;;;;;;;7.07;4.80;;;;;;;;;;5057131;28;20313;-60
2023/04/30 01:34:32;;;;;;;7.27;4.77;;;;;;;;;;5057555;28;20214;-60
2023/04/30 01:37:06;;;;;;;5.50;4.27;;;;;;;;;;5057496;28;20239;-60
2023/04/30 01:39:39;;;;;;;6.17;5.03;;;;;;;;;;5057604;28;20211;-61
2023/04/30 01:42:10;;;;;;;5.77;4.70;;;;;;;;;;5057253;28;20641;-60
2023/04/30 01:44:58;;;;;;;6.50;4.63;;;;;;;;;;5057748;28;20207;-60
2023/04/30 01:47:30;;;;;;;7.07;4.80;;;;;;;;;;5057095;28;20213;-60
2023/04/30 01:50:10;;;;;;;5.60;4.70;;;;;;;;;;5057261;28;20210;-61
2023/04/30 01:52:39;;;;;;;6.00;5.10;;;;;;;;;;5057670;28;20217;-61
2023/04/30 01:55:13;;;;;;;6.27;4.80;;;;;;;;;;5061331;28;20234;-60
2023/04/30 01:57:44;;;;;;;5.50;4.90;;;;;;;;;;5061531;28;20207;-60
2023/04/30 02:00:16;;;;;;;6.60;5.13;;;;;;;;;;5061115;28;20245;-60
2023/04/30 02:02:44;;;;;;;8.53;4.83;;;;;;;;;;5061003;28;20218;-61
2023/04/30 02:05:12;;;;;;;5.50;4.90;;;;;;;;;;5061067;28;20258;-61
2023/04/30 02:07:41;;;;;;;6.67;5.20;;;;;;;;;;5062286;28;20285;-60
2023/04/30 02:10:10;;;;;;;6.87;5.53;;;;;;;;;;5061298;28;20253;-61
2023/04/30 02:12:39;;;;;;;6.70;5.87;;;;;;;;;;5060890;28;20207;-60
2023/04/30 02:15:07;;;;;;;8.20;5.80;;;;;;;;;;5060765;28;20238;-60
2023/04/30 02:17:37;;;;;;;6.97;5.53;;;;;;;;;;5060974;28;20226;-60
2023/04/30 02:20:06;;;;;;;7.80;5.60;;;;;;;;;;5060545;28;20698;-60
2023/04/30 02:22:34;;;;;;;7.70;5.67;;;;;;;;;;5061002;28;20218;-60
2023/04/30 02:25:02;;;;;;;8.03;5.43;;;;;;;;;;5060803;28;20203;-60
2023/04/30 02:27:31;;;;;;;7.67;5.63;;;;;;;;;;5060612;28;20203;-60
2023/04/30 02:29:59;;;;;;;7.97;5.03;;;;;;;;;;5060572;28;20260;-60
2023/04/30 02:32:27;;;;;;;7.37;5.43;;;;;;;;;;5060506;28;20234;-60
2023/04/30 02:34:56;;;;;;;10.13;6.00;;;;;;;;;;5060576;28;20290;-60
2023/04/30 02:37:24;;;;;;;9.33;6.00;;;;;;;;;;5060386;28;20265;-60
2023/04/30 02:39:53;;;;;;;7.63;5.97;;;;;;;;;;5060253;28;20678;-60
2023/04/30 02:42:21;;;;;;;8.23;5.63;;;;;;;;;;5060803;28;20226;-60
2023/04/30 02:44:52;;;;;;;7.70;6.20;;;;;;;;;;5059971;28;20661;-60
2023/04/30 02:47:20;;;;;;;8.13;5.60;;;;;;;;;;5060182;28;20215;-60
2023/04/30 02:49:48;;;;;;;7.63;5.67;;;;;;;;;;5060126;28;20229;-60
2023/04/30 02:52:20;;;;;;;7.63;5.47;;;;;;;;;;5060444;28;20211;-59
2023/04/30 02:54:49;;;;;;;6.70;5.57;;;;;;;;;;5060028;28;20234;-60
2023/04/30 02:57:16;;;;;;;6.83;5.27;;;;;;;;;;5060300;28;20231;-60
2023/04/30 02:59:45;;;;;;;6.93;5.23;;;;;;;;;;5054748;28;20270;-59
2023/04/30 03:02:13;;;;;;;6.60;5.23;;;;;;;;;;5059744;28;20207;-60
2023/04/30 03:04:41;;;;;;;7.57;5.70;;;;;;;;;;5059121;28;20203;-60
2023/04/30 03:07:09;;;;;;;7.30;5.67;;;;;;;;;;5059865;28;20286;-60
2023/04/30 03:09:38;;;;;;;7.10;5.60;;;;;;;;;;5059765;28;20290;-60
2023/04/30 03:12:06;;;;;;;7.50;6.03;;;;;;;;;;5059974;28;20207;-60
2023/04/30 03:14:34;;;;;;;7.47;5.17;;;;;;;;;;5059844;28;20249;-60
2023/04/30 03:17:02;;;;;;;7.03;5.33;;;;;;;;;;5059078;28;20292;-60
2023/04/30 03:19:30;;;;;;;7.97;5.70;;;;;;;;;;5059395;28;20235;-60
2023/04/30 03:21:58;;;;;;;9.60;5.53;;;;;;;;;;5059636;28;20574;-60
2023/04/30 03:24:26;;;;;;;10.60;5.37;;;;;;;;;;5059447;28;20601;-60
2023/04/30 03:26:56;;;;;;;9.03;5.47;;;;;;;;;;5059690;28;20222;-60
2023/04/30 03:29:24;;;;;;;7.73;5.83;;;;;;;;;;5059351;28;20567;-59
2023/04/30 03:31:52;;;;;;;6.07;5.30;;;;;;;;;;5059066;28;20241;-62
2023/04/30 03:34:20;;;;;;;9.17;5.60;;;;;;;;;;5059566;28;20215;-62
2023/04/30 03:36:48;;;;;;;7.57;5.77;;;;;;;;;;5059132;28;20697;-62
2023/04/30 03:39:16;;;;;;;8.20;5.63;;;;;;;;;;5059420;28;20238;-62
2023/04/30 03:41:44;;;;;;;8.07;5.57;;;;;;;;;;5059185;28;20234;-62
2023/04/30 03:44:14;;;;;;;9.10;5.63;;;;;;;;;;5059147;28;20215;-62
2023/04/30 03:46:43;;;;;;;6.63;5.07;;;;;;;;;;5058887;28;20729;-62
2023/04/30 03:49:11;;;;;;;9.40;5.37;;;;;;;;;;5058994;28;20701;-63
2023/04/30 03:51:40;;;;;;;6.77;5.60;;;;;;;;;;5059304;28;20245;-62
2023/04/30 03:54:09;;;;;;;7.43;5.57;;;;;;;;;;5059176;28;20211;-62
2023/04/30 03:56:37;;;;;;;10.00;6.23;;;;;;;;;;5058728;28;20649;-62
2023/04/30 03:59:05;;;;;;;7.90;5.97;;;;;;;;;;5058845;28;20211;-61
2023/04/30 04:01:34;;;;;;;7.20;5.40;;;;;;;;;;5058848;28;20214;-62
2023/04/30 04:04:02;;;;;;;8.53;5.57;;;;;;;;;;5058897;28;20226;-62
2023/04/30 04:06:31;;;;;;;7.43;5.53;;;;;;;;;;5058919;28;20265;-62
2023/04/30 04:08:59;;;;;;;8.23;5.47;;;;;;;;;;5056629;28;20214;-61
2023/04/30 04:11:27;;;;;;;7.27;5.77;;;;;;;;;;5058729;28;20211;-62
2023/04/30 04:13:54;;;;;;;6.10;5.10;;;;;;;;;;5058816;28;20206;-62
2023/04/30 04:16:22;;;;;;;7.23;5.80;;;;;;;;;;5058338;28;20270;-62
2023/04/30 04:18:52;;;;;;;7.40;5.40;;;;;;;;;;5058210;28;20271;-61
2023/04/30 04:21:20;;;;;;;8.27;5.57;;;;;;;;;;5058730;28;20215;-62
2023/04/30 04:23:48;;;;;;;10.83;5.73;;;;;;;;;;5058594;28;20207;-62
2023/04/30 04:26:18;;;;;;;7.93;5.67;;;;;;;;;;5058303;28;20214;-62
2023/04/30 04:28:46;;;;;;;7.87;5.53;;;;;;;;;;5058541;28;20214;-61
2023/04/30 04:31:14;;;;;;;8.80;5.07;;;;;;;;;;5058110;28;20238;-62
2023/04/30 04:33:42;;;;;;;7.53;5.50;;;;;;;;;;5058418;28;20207;-59
2023/04/30 04:36:12;;;;;;;9.50;5.90;;;;;;;;;;5058079;28;20717;-59
2023/04/30 04:38:40;;;;;;;8.70;5.57;;;;;;;;;;5058374;28;20325;-59
2023/04/30 04:41:07;;;;;;;7.30;5.03;;;;;;;;;;5058372;28;20210;-59
2023/04/30 04:43:36;;;;;;;6.80;5.23;;;;;;;;;;5058377;28;20207;-60
2023/04/30 04:46:04;;;;;;;8.50;5.67;;;;;;;;;;5057677;28;20235;-59
2023/04/30 04:48:32;;;;;;;8.17;6.17;;;;;;;;;;5058198;28;20206;-59
2023/04/30 04:51:00;;;;;;;6.67;4.93;;;;;;;;;;5058221;28;20203;-59
2023/04/30 04:53:29;;;;;;;7.60;5.60;;;;;;;;;;5058227;28;20242;-59
2023/04/30 04:56:00;;;;;;;10.43;5.53;;;;;;;;;;5057776;28;20296;-59
2023/04/30 04:58:28;;;;;;;7.33;5.03;;;;;;;;;;5057987;28;20295;-59
2023/04/30 05:00:56;;;;;;;8.13;5.87;;;;;;;;;;5057605;28;20566;-59
2023/04/30 05:03:24;;;;;;;9.13;5.87;;;;;;;;;;5057530;28;20199;-59
2023/04/30 05:05:52;;;;;;;7.83;5.60;;;;;;;;;;5057948;28;20227;-58
2023/04/30 05:08:20;;;;;;;7.37;5.27;;;;;;;;;;5057660;28;20239;-58
2023/04/30 05:10:50;;;;;;;7.27;5.43;;;;;;;;;;5053338;28;20237;-58
2023/04/30 05:13:18;;;;;;;6.93;5.27;;;;;;;;;;5057439;28;20716;-58
2023/04/30 05:15:46;;;;;;;6.50;5.30;;;;;;;;;;5057594;28;20254;-58
2023/04/30 05:18:15;;;;;;;7.80;4.97;;;;;;;;;;5057175;28;20226;-58
2023/04/30 05:20:42;;;;;;;7.57;5.17;;;;;;;;;;5057341;28;20226;-58
2023/04/30 05:23:11;;;;;;;8.00;5.40;;;;;;;;;;5046643;28;20208;-59
2023/04/30 05:25:39;;;;;;;8.27;5.27;;;;;;;;;;5038343;28;20215;-58
2023/04/30 05:28:08;;;;;;;8.60;5.20;;;;;;;;;;5038287;28;20227;-58
2023/04/30 05:30:36;;;;;;;5.80;4.87;;;;;;;;;;5038976;28;20211;-58
2023/04/30 05:33:04;;;;;;;7.53;5.00;;;;;;;;;;5038858;28;20294;-58
2023/04/30 05:35:34;;;;;;;8.07;5.33;;;;;;;;;;5046171;28;20245;-58
2023/04/30 05:38:03;;;;;;;8.77;5.80;;;;;;;;;;5048182;28;20219;-58
2023/04/30 05:40:31;;;;;;;7.93;4.50;;;;;;;;;;5046923;28;20204;-58
2023/04/30 05:42:58;;;;;;;8.13;5.03;;;;;;;;;;5046447;28;20209;-59
2023/04/30 05:45:28;;;;;;;8.80;5.53;;;;;;;;;;5040918;28;20268;-59
2023/04/30 05:47:56;;;;;;;7.77;5.30;;;;;;;;;;5058202;28;20285;-58
2023/04/30 05:50:24;;;;;;;7.33;5.60;;;;;;;;;;5039884;28;20219;-58
2023/04/30 05:52:52;;;;;;;6.27;5.13;;;;;;;;;;5040771;28;20203;-59
2023/04/30 05:55:20;;;;;;;7.67;5.60;;;;;;;;;;5037136;28;20230;-58
2023/04/30 05:57:48;;;;;;;7.87;5.70;;;;;;;;;;5036884;28;20230;-58
2023/04/30 06:00:16;;;;;;;6.90;5.63;;;;;;;;;;5055927;28;20214;-58
2023/04/30 06:02:45;;;;;;;7.00;4.97;;;;;;;;;;5057065;28;20211;-59
2023/04/30 06:05:13;;;;;;;6.70;5.73;;;;;;;;;;5059014;28;20259;-58
2023/04/30 06:07:43;;;;;;;6.73;4.97;;;;;;;;;;5056778;28;20207;-58
2023/04/30 06:10:11;;;;;;;7.67;5.50;;;;;;;;;;5057073;28;20206;-58
2023/04/30 06:12:39;;;;;;;8.67;5.57;;;;;;;;;;5057020;28;20374;-58
2023/04/30 06:15:07;;;;;;;6.60;5.90;;;;;;;;;;5056739;28;20226;-58
2023/04/30 06:17:35;;;;;;;5.97;4.93;;;;;;;;;;5056780;28;20206;-58
2023/04/30 06:20:06;;;;;;;9.47;5.63;;;;;;;;;;5056707;28;20234;-58
2023/04/30 06:22:34;;;;;;;5.90;5.30;;;;;;;;;;5056650;28;20634;-58
2023/04/30 06:25:02;;;;;;;8.23;5.87;;;;;;;;;;5056934;28;20215;-58
2023/04/30 06:27:31;;;;;;;7.73;5.67;;;;;;;;;;5056830;28;20199;-58
2023/04/30 06:30:00;;;;;;;6.93;5.80;;;;;;;;;;5056392;28;20211;-58
2023/04/30 06:32:28;;;;;;;8.77;5.70;;;;;;;;;;5056735;28;20265;-58
2023/04/30 06:34:55;;;;;;;7.50;5.40;;;;;;;;;;5056499;28;20260;-58
2023/04/30 06:37:25;;;;;;;8.93;5.27;;;;;;;;;;5056559;28;20773;-58
2023/04/30 06:39:53;;;;;;;9.83;5.63;;;;;;;;;;5057307;28;20269;-58
2023/04/30 06:42:21;;;;;;;7.27;5.93;;;;;;;;;;5043442;28;20290;-58
2023/04/30 06:44:49;;;;;;;8.43;5.30;;;;;;;;;;5040077;28;20239;-58
2023/04/30 06:47:17;;;;;;;8.33;6.40;;;;;;;;;;5054224;28;20282;-58
2023/04/30 06:49:45;;;;;;;6.77;5.43;;;;;;;;;;5057625;28;20557;-58
2023/04/30 06:52:13;;;;;;;8.90;4.93;;;;;;;;;;5057617;28;20217;-58
2023/04/30 06:54:42;;;;;;;7.77;5.40;;;;;;;;;;5056731;28;20209;-59
2023/04/30 06:57:11;;;;;;;6.17;5.37;;;;;;;;;;5055180;28;20206;-60
2023/04/30 06:59:39;;;;;;;7.00;5.00;;;;;;;;;;5058010;28;20233;-60
2023/04/30 07:02:07;;;;;;;9.33;5.53;;;;;;;;;;5056479;28;20203;-60
2023/04/30 07:04:35;;;;;;;8.60;5.90;;;;;;;;;;5059548;28;20202;-60
2023/04/30 07:07:03;;;;;;;9.80;5.70;;;;;;;;;;5053948;28;20760;-61
2023/04/30 07:09:31;;;;;;;6.20;5.33;;;;;;;;;;5056950;28;20270;-60
2023/04/30 07:12:00;;;;;;;8.30;5.67;;;;;;;;;;5048789;28;20211;-59
2023/04/30 07:14:28;;;;;;;7.13;5.43;;;;;;;;;;5039989;28;20217;-60
2023/04/30 07:16:56;;;;;;;9.47;5.60;;;;;;;;;;5039318;28;20677;-58
2023/04/30 07:19:25;;;;;;;7.10;5.57;;;;;;;;;;5039571;28;20239;-58
2023/04/30 07:21:53;;;;;;;7.27;5.57;;;;;;;;;;5039910;28;20239;-58
2023/04/30 07:24:21;;;;;;;7.57;5.03;;;;;;;;;;5039859;28;20242;-58
2023/04/30 07:26:49;;;;;;;6.23;5.27;;;;;;;;;;5050773;28;20231;-58
2023/04/30 07:29:19;;;;;;;7.93;5.70;;;;;;;;;;5046759;28;20203;-58
2023/04/30 07:31:46;;;;;;;6.70;5.63;;;;;;;;;;5059249;28;20202;-58
2023/04/30 07:34:14;;;;;;;8.00;6.17;;;;;;;;;;5059479;28;20203;-58
2023/04/30 07:36:43;;;;;;;7.83;5.83;;;;;;;;;;5059226;28;20591;-58
2023/04/30 07:39:11;;;;;;;10.73;6.57;;;;;;;;;;5059225;28;20663;-58
2023/04/30 07:41:39;;;;;;;7.67;5.83;;;;;;;;;;5059162;28;20750;-58
2023/04/30 07:44:07;;;;;;;9.07;5.77;;;;;;;;;;5059265;28;20718;-58
2023/04/30 07:46:36;;;;;;;8.77;5.33;;;;;;;;;;5059041;28;20262;-58
2023/04/30 07:49:04;;;;;;;8.40;6.03;;;;;;;;;;5059290;28;20230;-58
2023/04/30 07:51:32;;;;;;;8.47;5.33;;;;;;;;;;5058547;28;20210;-58
2023/04/30 07:54:00;;;;;;;7.90;5.23;;;;;;;;;;5058974;28;20677;-58
2023/04/30 07:56:28;;;;;;;9.50;5.40;;;;;;;;;;5059034;28;20254;-58
2023/04/30 07:58:56;;;;;;;7.10;5.20;;;;;;;;;;5058784;28;20724;-58
2023/04/30 08:01:24;;;;;;;5.67;4.90;;;;;;;;;;5058816;28;20289;-59
2023/04/30 08:03:54;;;;;;;4.50;4.07;;;;;;;;;;5051991;28;20203;-58
2023/04/30 08:06:22;;;;;;;6.37;5.63;;;;;;;;;;5052252;28;20314;-59
2023/04/30 08:08:50;;;;;;;6.67;5.67;;;;;;;;;;5053885;28;20203;-58
2023/04/30 08:11:18;;;;;;;7.50;5.27;;;;;;;;;;5055768;28;20195;-59
2023/04/30 08:13:46;;;;;;;8.20;5.10;;;;;;;;;;5053157;28;20295;-59
2023/04/30 08:16:14;;;;;;;7.57;5.30;;;;;;;;;;5052756;28;20221;-60
2023/04/30 08:18:44;;;;;;;7.83;4.97;;;;;;;;;;5054985;28;20271;-59
2023/04/30 08:21:14;;;;;;;6.67;5.53;;;;;;;;;;5056105;28;20283;-59
2023/04/30 08:23:42;;;;;;;6.07;4.17;;;;;;;;;;5052402;28;20248;-59
2023/04/30 08:26:10;;;;;;;5.10;3.73;;;;;;;;;;5055768;28;20229;-59
2023/04/30 08:28:37;;;;;;;6.73;4.43;;;;;;;;;;5053040;28;20680;-59
2023/04/30 08:31:05;;;;;;;6.17;5.33;;;;;;;;;;5055316;28;20217;-59
2023/04/30 08:33:33;;;;;;;6.80;5.17;;;;;;;;;;5054161;28;20207;-59
2023/04/30 08:36:01;;;;;;;8.83;4.47;;;;;;;;;;5051582;28;20231;-59
2023/04/30 08:38:31;;;;;;;5.10;4.43;;;;;;;;;;5054915;28;20206;-61
2023/04/30 08:41:05;;;;;;;6.53;5.40;;;;;;;;;;5053096;28;20225;-61
2023/04/30 08:43:35;;;;;;;6.53;4.80;;;;;;;;;;5054687;28;20199;-59
2023/04/30 08:46:03;;;;;;;6.03;4.53;;;;;;;;;;5056012;28;20223;-59
2023/04/30 08:48:31;;;;;;;5.73;4.20;;;;;;;;;;5057230;28;20255;-60
2023/04/30 08:51:00;;;;;;;7.50;5.07;;;;;;;;;;5053985;28;20199;-60
2023/04/30 08:53:28;;;;;;;4.80;4.23;;;;;;;;;;5054696;28;20231;-60
2023/04/30 08:55:58;;;;;;;6.63;4.83;;;;;;;;;;5051550;28;20258;-59
2023/04/30 08:58:26;;;;;;;5.70;4.37;;;;;;;;;;5056893;28;20214;-60
2023/04/30 09:00:53;;;;;;;6.43;4.73;;;;;;;;;;5053475;28;20218;-60
2023/04/30 09:03:22;;;;;;;14.47;5.13;;;;;;;;;;5054211;28;20564;-60
2023/04/30 09:05:51;;;;;;;7.53;5.20;;;;;;;;;;5055482;28;20343;-60
2023/04/30 09:08:19;;;;;;;7.73;4.97;;;;;;;;;;5054114;28;20233;-59
2023/04/30 09:10:47;;;;;;;5.37;4.87;;;;;;;;;;5049568;28;20241;-59
2023/04/30 09:13:16;;;;;;;5.63;5.07;;;;;;;;;;5053001;28;20199;-59
2023/04/30 09:15:45;;;;;;;5.93;4.63;;;;;;;;;;5042624;28;20648;-59
2023/04/30 09:18:16;;;;;;;6.97;5.13;;;;;;;;;;5055749;28;20203;-59
2023/04/30 09:20:55;;;;;;;7.40;5.60;;;;;;;;;;5055941;28;20223;-59
2023/04/30 09:23:23;;;;;;;6.70;4.90;;;;;;;;;;5056578;28;20206;-59
2023/04/30 09:25:51;;;;;;;4.90;4.47;;;;;;;;;;5057353;28;20756;-59
2023/04/30 09:28:23;;;;;;;6.17;4.70;;;;;;;;;;5057333;28;20265;-59
2023/04/30 09:30:51;;;;;;;5.57;4.50;;;;;;;;;;5056846;28;20262;-59
2023/04/30 09:33:19;;;;;;;5.03;4.53;;;;;;;;;;5054198;28;20199;-60
2023/04/30 09:35:47;;;;;;;6.27;4.80;;;;;;;;;;5050888;28;20223;-59
2023/04/30 09:38:26;;;;;;;6.47;5.37;;;;;;;;;;5054114;28;20662;-59
2023/04/30 09:40:54;;;;;;;7.63;5.90;;;;;;;;;;5051283;28;20566;-59
2023/04/30 09:43:23;;;;;;;8.17;5.93;;;;;;;;;;5055144;28;20199;-59
2023/04/30 09:45:52;;;;;;;7.03;5.30;;;;;;;;;;5037173;28;20228;-59
2023/04/30 09:48:22;;;;;;;9.47;5.70;;;;;;;;;;5055684;28;20269;-59
2023/04/30 09:50:51;;;;;;;8.23;5.87;;;;;;;;;;5056912;28;20292;-59
2023/04/30 09:53:20;;;;;;;10.80;6.53;;;;;;;;;;5056848;28;20209;-60
2023/04/30 09:55:50;;;;;;;8.73;6.03;;;;;;;;;;5056712;28;20254;-60
2023/04/30 09:58:19;;;;;;;8.73;5.57;;;;;;;;;;5056567;28;20207;-60
2023/04/30 10:00:50;;;;;;;7.90;5.73;;;;;;;;;;5055941;28;20763;-60
2023/04/30 10:03:19;;;;;;;8.50;5.97;;;;;;;;;;5055331;28;20229;-60
2023/04/30 10:05:48;;;;;;;9.03;5.97;;;;;;;;;;5053694;28;20235;-59
2023/04/30 10:08:19;;;;;;;6.07;5.17;;;;;;;;;;5049685;28;20199;-60
2023/04/30 10:10:50;;;;;;;8.43;6.07;;;;;;;;;;5051238;28;20203;-59
2023/04/30 10:13:19;;;;;;;7.27;5.73;;;;;;;;;;5052675;28;20195;-59
2023/04/30 10:15:51;;;;;;;8.47;5.90;;;;;;;;;;5053943;28;20223;-59
2023/04/30 10:18:20;;;;;;;8.70;6.33;;;;;;;;;;5058164;28;20238;-61
2023/04/30 10:20:49;;;;;;;7.93;6.07;;;;;;;;;;5059894;28;20222;-60
2023/04/30 10:23:17;;;;;;;9.47;5.63;;;;;;;;;;5057564;28;20203;-60
2023/04/30 10:25:46;;;;;;;7.90;6.03;;;;;;;;;;5056570;28;20223;-60
2023/04/30 10:28:14;;;;;;;7.47;5.73;;;;;;;;;;5055914;28;20203;-59
2023/04/30 10:30:42;;;;;;;6.90;5.63;;;;;;;;;;5056223;28;20199;-59
2023/04/30 10:33:16;;;;;;;8.03;6.33;;;;;;;;;;5057225;28;20202;-59
2023/04/30 10:35:47;;;;;;;9.37;6.07;;;;;;;;;;5057222;28;20298;-59
2023/04/30 10:38:18;;;;;;;6.43;5.70;;;;;;;;;;5059456;28;20203;-61
2023/04/30 10:40:47;;;;;;;6.80;5.97;;;;;;;;;;5056407;28;20227;-60
2023/04/30 10:43:17;;;;;;;7.03;6.17;;;;;;;;;;5055940;28;20202;-61
2023/04/30 10:45:45;;;;;;;7.43;5.53;;;;;;;;;;5056954;28;20706;-60
2023/04/30 10:48:23;;;;;;;10.40;5.60;;;;;;;;;;5052674;28;20203;-60
2023/04/30 10:50:52;;;;;;;7.80;5.40;;;;;;;;;;5052172;28;20233;-60
2023/04/30 10:53:21;;;;;;;10.60;6.47;;;;;;;;;;5057363;28;20206;-61
2023/04/30 10:55:53;;;;;;;9.80;6.60;;;;;;;;;;5052193;28;20755;-59
2023/04/30 10:58:24;;;;;;;9.10;5.77;;;;;;;;;;5059239;28;20203;-59
2023/04/30 11:01:00;;;;;;;8.97;6.80;;;;;;;;;;5057636;28;20749;-59
2023/04/30 11:03:31;;;;;;;10.00;6.87;;;;;;;;;;5052806;28;20238;-59
2023/04/30 11:06:02;;;;;;;9.27;6.40;;;;;;;;;;5053948;28;20250;-58
2023/04/30 11:08:34;;;;;;;10.63;7.77;;;;;;;;;;5058259;28;20203;-58
2023/04/30 11:11:03;;;;;;;9.33;6.17;;;;;;;;;;5058598;28;20697;-59
2023/04/30 11:13:41;;;;;;;9.30;6.90;;;;;;;;;;5053416;28;20199;-58
2023/04/30 11:16:09;;;;;;;11.07;6.93;;;;;;;;;;5054662;28;20219;-58
2023/04/30 11:18:44;;;;;;;8.13;6.13;;;;;;;;;;5059097;28;20262;-59
2023/04/30 11:21:12;;;;;;;8.40;6.97;;;;;;;;;;5059516;28;20240;-58
2023/04/30 11:23:42;;;;;;;7.37;6.27;;;;;;;;;;5043720;28;20204;-58
2023/04/30 11:26:10;;;;;;;8.73;6.13;;;;;;;;;;5044367;28;20215;-59
2023/04/30 11:28:38;;;;;;;9.23;6.37;;;;;;;;;;5059788;28;20207;-58
2023/04/30 11:31:06;;;;;;;8.27;6.70;;;;;;;;;;5059455;28;20210;-59
2023/04/30 11:33:34;;;;;;;10.53;7.93;;;;;;;;;;5059418;28;20293;-59
2023/04/30 11:36:04;;;;;;;8.83;6.27;;;;;;;;;;5059210;28;20289;-61
2023/04/30 11:38:34;;;;;;;8.17;6.33;;;;;;;;;;5063681;28;20685;-61
2023/04/30 11:41:02;;;;;;;7.43;6.10;;;;;;;;;;5042615;28;20239;-61
2023/04/30 11:43:31;;;;;;;7.77;5.70;;;;;;;;;;5045582;28;20230;-59
2023/04/30 11:46:06;;;;;;;7.57;6.00;;;;;;;;;;5055350;28;20311;-60
2023/04/30 11:48:34;;;;;;;7.23;6.23;;;;;;;;;;5050203;28;20199;-59
2023/04/30 11:51:14;;;;;;;8.73;6.90;;;;;;;;;;5058735;28;20643;-60
2023/04/30 11:53:42;;;;;;;6.70;5.97;;;;;;;;;;5056209;28;20285;-60
2023/04/30 11:56:10;;;;;;;7.33;6.17;;;;;;;;;;5040761;28;20227;-59
2023/04/30 11:58:39;;;;;;;6.67;5.80;;;;;;;;;;5060982;28;20229;-59
2023/04/30 12:01:08;;;;;;;9.00;6.37;;;;;;;;;;5054408;28;20255;-60
2023/04/30 12:03:43;;;;;;;12.07;6.23;;;;;;;;;;5058285;28;20226;-61
2023/04/30 12:06:21;;;;;;;7.33;5.77;;;;;;;;;;5053298;28;20218;-60
2023/04/30 12:08:50;;;;;;;7.50;6.13;;;;;;;;;;5058177;28;20567;-60
2023/04/30 12:11:24;;;;;;;8.40;6.37;;;;;;;;;;5058851;28;20234;-61
2023/04/30 12:13:53;;;;;;;6.33;5.23;;;;;;;;;;5058680;28;20210;-60
2023/04/30 12:16:21;;;;;;;7.27;5.60;;;;;;;;;;5058502;28;20222;-60
2023/04/30 12:18:50;;;;;;;7.97;5.80;;;;;;;;;;5058253;28;20226;-60
2023/04/30 12:21:21;;;;;;;6.20;5.60;;;;;;;;;;5055449;28;20223;-60
2023/04/30 12:23:49;;;;;;;8.37;6.17;;;;;;;;;;5058002;28;20199;-60
2023/04/30 12:26:17;;;;;;;8.17;5.90;;;;;;;;;;5058535;28;20226;-60
2023/04/30 12:28:47;;;;;;;7.00;5.60;;;;;;;;;;5057331;28;20233;-60
2023/04/30 12:31:15;;;;;;;7.57;5.87;;;;;;;;;;5038438;28;20210;-60
2023/04/30 12:33:43;;;;;;;9.33;5.73;;;;;;;;;;5045253;28;20195;-60
2023/04/30 12:36:11;;;;;;;8.60;6.20;;;;;;;;;;5057386;28;20230;-60
2023/04/30 12:38:43;;;;;;;7.33;5.77;;;;;;;;;;5055190;28;20199;-60
2023/04/30 12:41:14;;;;;;;7.23;5.67;;;;;;;;;;5057081;28;20223;-60
2023/04/30 12:43:42;;;;;;;7.33;5.83;;;;;;;;;;5057989;28;20203;-59
2023/04/30 12:46:10;;;;;;;6.40;5.53;;;;;;;;;;5057970;28;20227;-60
2023/04/30 12:48:44;;;;;;;6.70;5.47;;;;;;;;;;5058062;28;20262;-59
2023/04/30 12:51:12;;;;;;;6.23;5.63;;;;;;;;;;5058000;28;20662;-60
2023/04/30 12:53:46;;;;;;;6.43;5.67;;;;;;;;;;5058070;28;20209;-61
2023/04/30 12:56:15;;;;;;;6.30;5.13;;;;;;;;;;5058158;28;20237;-62
2023/04/30 12:58:46;;;;;;;7.03;5.70;;;;;;;;;;5058080;28;20237;-60
2023/04/30 13:01:16;;;;;;;7.03;5.30;;;;;;;;;;5057539;28;20638;-59
2023/04/30 13:03:44;;;;;;;6.57;5.10;;;;;;;;;;5057677;28;20210;-59
2023/04/30 13:06:12;;;;;;;7.23;5.03;;;;;;;;;;5057788;28;20321;-60
2023/04/30 13:08:40;;;;;;;7.40;5.53;;;;;;;;;;5057882;28;20207;-61
2023/04/30 13:11:26;;;;;;;8.37;5.70;;;;;;;;;;5055464;28;20245;-62
2023/04/30 13:13:55;;;;;;;7.33;5.23;;;;;;;;;;5051875;28;20202;-63
2023/04/30 13:16:24;;;;;;;7.53;5.80;;;;;;;;;;5054344;28;20315;-61
2023/04/30 13:18:53;;;;;;;6.37;5.27;;;;;;;;;;5051580;28;20314;-62
2023/04/30 13:21:21;;;;;;;5.70;5.20;;;;;;;;;;5057542;28;20618;-61
2023/04/30 13:23:49;;;;;;;6.90;5.03;;;;;;;;;;5057386;28;20249;-62
2023/04/30 13:26:21;;;;;;;7.80;5.47;;;;;;;;;;5057519;28;20249;-61
2023/04/30 13:28:51;;;;;;;7.43;4.80;;;;;;;;;;5057638;28;20207;-60
2023/04/30 13:31:19;;;;;;;6.03;5.10;;;;;;;;;;5057488;28;20210;-60
2023/04/30 13:33:47;;;;;;;6.93;5.07;;;;;;;;;;5057219;28;20210;-61
2023/04/30 13:36:16;;;;;;;6.93;5.17;;;;;;;;;;5054314;28;20265;-59
2023/04/30 13:38:44;;;;;;;6.30;4.97;;;;;;;;;;5049333;28;20202;-60
2023/04/30 13:41:12;;;;;;;6.63;4.63;;;;;;;;;;5056894;28;20264;-59
2023/04/30 13:43:41;;;;;;;5.43;4.87;;;;;;;;;;5057153;28;20226;-61
2023/04/30 13:46:11;;;;;;;4.70;3.80;;;;;;;;;;5056905;28;20298;-60
2023/04/30 13:48:38;;;;;;;5.47;4.47;;;;;;;;;;5057711;28;20235;-60
2023/04/30 13:51:07;;;;;;;6.23;4.70;;;;;;;;;;5061642;28;20238;-62
2023/04/30 13:53:36;;;;;;;5.03;4.47;;;;;;;;;;5061491;28;20202;-60
2023/04/30 13:56:04;;;;;;;6.33;5.00;;;;;;;;;;5061192;28;20231;-60
2023/04/30 13:58:32;;;;;;;6.63;4.50;;;;;;;;;;5061073;28;20643;-60
2023/04/30 14:01:00;;;;;;;5.07;4.57;;;;;;;;;;5061230;28;20210;-60
2023/04/30 14:03:30;;;;;;;5.50;4.47;;;;;;;;;;5060805;28;20321;-60
2023/04/30 14:05:58;;;;;;;6.20;4.23;;;;;;;;;;5061331;28;20231;-61
2023/04/30 14:08:26;;;;;;;4.60;4.10;;;;;;;;;;5046578;28;20236;-61
2023/04/30 14:10:54;;;;;;;5.23;4.13;;;;;;;;;;5041397;28;20239;-62
2023/04/30 14:13:22;;;;;;;5.27;4.77;;;;;;;;;;5041189;28;20231;-62
2023/04/30 14:15:51;;;;;;;4.67;4.13;;;;;;;;;;5040569;28;20718;-62
2023/04/30 14:18:21;;;;;;;6.17;3.97;;;;;;;;;;5040953;28;20290;-62
2023/04/30 14:20:51;;;;;;;4.43;3.77;;;;;;;;;;5051644;28;20650;-62
2023/04/30 14:23:18;;;;;;;4.40;3.63;;;;;;;;;;5060980;28;20285;-62
2023/04/30 14:25:47;;;;;;;4.93;3.93;;;;;;;;;;5060454;28;20414;-62
2023/04/30 14:28:15;;;;;;;4.47;3.50;;;;;;;;;;5060907;28;20204;-62
2023/04/30 14:30:43;;;;;;;4.77;4.37;;;;;;;;;;5060346;28;20207;-61
2023/04/30 14:33:11;;;;;;;4.47;3.73;;;;;;;;;;5060450;28;20666;-62
2023/04/30 14:35:40;;;;;;;4.20;3.80;;;;;;;;;;5060676;28;20234;-61
2023/04/30 14:38:09;;;;;;;4.43;3.50;;;;;;;;;;5060524;28;20656;-62
2023/04/30 14:40:37;;;;;;;4.50;4.10;;;;;;;;;;5060571;28;20214;-62
2023/04/30 14:43:05;;;;;;;5.70;4.50;;;;;;;;;;5060301;28;20660;-62
2023/04/30 14:45:33;;;;;;;4.47;3.63;;;;;;;;;;5059774;28;20334;-61
2023/04/30 14:48:02;;;;;;;5.00;3.93;;;;;;;;;;5060357;28;20211;-62
2023/04/30 14:50:32;;;;;;;4.93;3.97;;;;;;;;;;5060302;28;20270;-61
2023/04/30 14:53:00;;;;;;;3.90;3.60;;;;;;;;;;5060421;28;20241;-61
2023/04/30 14:55:29;;;;;;;5.70;3.90;;;;;;;;;;5060301;28;20317;-61